Strona główna
METAR-TAF:

METAR-TAF

Lotnisko :

Port lotniczy Kuantan

Kuantan, Malezja

Szerokość geograficzna: 03-37N, Długość geograficzna: 103-13E, wysokość: 18 m

Aktualna obserwacja pogody

Raport powstał 51 minut temu, godzina 21:00 UTC
Wiatr 1 kt z kierunków zmiennych
Temperatura 26°C
Wilgotność 89%
Ciśnienie 1009 hPa
Widzialność: 8000 m
Mało chmury na wysokości 500 ft

METAR: WMKD 102100Z VRB01KT 8000 FEW005 26/24 Q1009 NOSIG

czas: 05:51 (21:51 UTC)


TAF: brakujący

Obserwacja i prognoza pogody dla ponad 4000 lotnisk (raport METAR i TAF).

Dostępne stacje oznaczono żółtymi i czerwonymi punktami na mapie.

Najedź kursorem aby zobaczyć nazwę stacji.

Kliknij aby zobaczyć obserwacje i prognozy pogody.

Aby zmienić mapę: kliknij na zielony przycisk z czarnym krzyżykiem, aby powiększyć; na zielony przycisk z myślnikiem, aby pomniejszyć; na zielone strzałki, aby przejść do map sąsiednich.


METAR-TAF: